Time;durP1;ratioP1;P1;durP2;ratioP2;P2;SDS_P1;SDS_P2;PMS_P1;PMS_P2;Temp;Humidity;BMP_temperature;BMP_pressure;BME280_temperature;BME280_humidity;BME280_pressure;Samples;Min_cycle;Max_cycle;Signal;HPM_P1;HPM_P2
2024/04/07 00:00:23;;;;;;;3.58;1.10;;;18.70;99.90;;;;;;12601753;28;20496;-34
2024/04/07 00:06:26;;;;;;;5.03;1.13;;;18.50;99.90;;;;;;12609312;28;20511;-34
2024/04/07 00:12:27;;;;;;;3.07;1.20;;;18.40;99.90;;;;;;12617047;28;20497;-34
2024/04/07 00:18:28;;;;;;;2.33;1.20;;;18.50;99.90;;;;;;12622398;28;20105;-34
2024/04/07 00:24:29;;;;;;;3.05;1.15;;;18.60;99.90;;;;;;12610764;28;20113;-34
2024/04/07 00:30:30;;;;;;;2.97;1.10;;;18.60;99.90;;;;;;12606490;28;20079;-34
2024/04/07 00:36:30;;;;;;;1.95;0.82;;;18.40;99.90;;;;;;12624805;28;20063;-34
2024/04/07 00:42:31;;;;;;;3.17;1.00;;;18.40;99.90;;;;;;12626270;28;20044;-34
2024/04/07 00:48:32;;;;;;;2.13;1.10;;;18.20;99.90;;;;;;12595055;28;20126;-34
2024/04/07 00:54:34;;;;;;;4.00;0.93;;;18.20;99.90;;;;;;12619646;28;20557;-34
2024/04/07 01:00:35;;;;;;;1.77;0.98;;;18.30;99.90;;;;;;12601482;28;20566;-34
2024/04/07 01:06:36;;;;;;;2.40;1.08;;;18.40;99.90;;;;;;12603540;28;20036;-34
2024/04/07 01:12:37;;;;;;;4.85;1.00;;;18.20;99.90;;;;;;12613765;28;20060;-34
2024/04/07 01:18:37;;;;;;;3.15;1.10;;;18.00;99.90;;;;;;12610916;28;20072;-34
2024/04/07 01:24:39;;;;;;;3.35;0.88;;;17.90;99.90;;;;;;12618279;28;20052;-34
2024/04/07 01:30:40;;;;;;;3.83;1.00;;;17.70;99.90;;;;;;12555417;28;20063;-34
2024/04/07 01:36:42;;;;;;;4.82;1.30;;;17.80;99.90;;;;;;12622652;28;20058;-34
2024/04/07 01:42:43;;;;;;;2.33;0.80;;;17.70;99.90;;;;;;12615410;28;20052;-34
2024/04/07 01:48:45;;;;;;;3.33;1.10;;;17.60;99.90;;;;;;12607625;28;20048;-34
2024/04/07 01:54:46;;;;;;;4.40;1.10;;;17.60;99.90;;;;;;12615431;28;20098;-34
2024/04/07 02:00:47;;;;;;;4.13;1.02;;;17.90;99.90;;;;;;12621168;28;20185;-34
2024/04/07 02:06:48;;;;;;;4.65;0.98;;;18.30;99.90;;;;;;12608766;28;20045;-34
2024/04/07 02:12:49;;;;;;;2.47;0.70;;;18.70;99.90;;;;;;12579759;28;20084;-35
2024/04/07 02:18:51;;;;;;;3.90;0.90;;;18.80;99.90;;;;;;12612570;28;20082;-34
2024/04/07 02:24:52;;;;;;;3.40;1.10;;;18.80;99.90;;;;;;12598126;28;20055;-34
2024/04/07 02:30:53;;;;;;;5.88;1.10;;;18.90;99.90;;;;;;12587599;28;20515;-34
2024/04/07 02:36:53;;;;;;;3.78;1.17;;;18.80;99.90;;;;;;12578868;28;20106;-34
2024/04/07 02:42:54;;;;;;;7.18;0.95;;;18.80;99.90;;;;;;12612547;28;20980;-34
2024/04/07 02:48:55;;;;;;;2.65;0.90;;;18.60;99.90;;;;;;12613913;28;20142;-34
2024/04/07 02:54:56;;;;;;;3.63;1.10;;;18.60;99.90;;;;;;12628093;28;20474;-34
2024/04/07 03:01:04;;;;;;;4.10;1.10;;;18.70;99.90;;;;;;12610841;28;20055;-34
2024/04/07 03:07:05;;;;;;;6.82;1.20;;;18.80;99.90;;;;;;12610769;28;20044;-34
2024/04/07 03:13:06;;;;;;;3.97;1.20;;;18.90;99.90;;;;;;12614428;28;20441;-34
2024/04/07 03:19:07;;;;;;;3.65;0.93;;;18.80;99.90;;;;;;12615970;28;20437;-36
2024/04/07 03:25:08;;;;;;;5.63;1.35;;;18.80;99.90;;;;;;12619364;28;20106;-34
2024/04/07 03:31:10;;;;;;;6.68;1.75;;;18.90;99.90;;;;;;12584082;28;20055;-34
2024/04/07 03:37:11;;;;;;;3.65;0.73;;;18.90;99.90;;;;;;12611284;28;20049;-35
2024/04/07 03:43:16;;;;;;;6.50;1.52;;;18.90;99.90;;;;;;12619658;28;20044;-34
2024/04/07 03:49:16;;;;;;;5.25;1.27;;;18.90;99.90;;;;;;12606762;28;20477;-34
2024/04/07 03:55:17;;;;;;;8.25;0.85;;;18.80;99.90;;;;;;12618590;28;20048;-34
2024/04/07 04:01:18;;;;;;;7.18;1.25;;;18.70;99.90;;;;;;12617005;28;20500;-34
2024/04/07 04:07:19;;;;;;;5.82;1.33;;;18.70;99.90;;;;;;12619761;28;20102;-34
2024/04/07 04:13:20;;;;;;;7.78;1.30;;;18.50;99.90;;;;;;12624192;28;20083;-35
2024/04/07 04:19:21;;;;;;;7.13;1.45;;;18.70;99.90;;;;;;12596195;28;20097;-34
2024/04/07 04:25:22;;;;;;;6.43;1.08;;;18.80;99.90;;;;;;12603347;28;20052;-34
2024/04/07 04:31:23;;;;;;;6.05;1.77;;;18.70;99.90;;;;;;12596151;28;20067;-34
2024/04/07 04:37:24;;;;;;;6.30;1.30;;;18.60;99.90;;;;;;12623181;28;20048;-34
2024/04/07 04:43:25;;;;;;;6.78;1.10;;;18.40;99.90;;;;;;12610361;28;20271;-34
2024/04/07 04:49:26;;;;;;;5.13;1.55;;;18.20;99.90;;;;;;12602306;28;20165;-35
2024/04/07 04:55:27;;;;;;;4.65;1.40;;;17.90;99.90;;;;;;12622693;28;20052;-34
2024/04/07 05:01:28;;;;;;;8.65;1.38;;;17.70;99.90;;;;;;12603611;28;20040;-34
2024/04/07 05:07:29;;;;;;;6.85;1.80;;;17.60;99.90;;;;;;12607088;28;20048;-34
2024/04/07 05:13:30;;;;;;;5.28;1.50;;;17.50;99.90;;;;;;12623770;28;20044;-34
2024/04/07 05:19:31;;;;;;;8.25;1.98;;;17.30;99.90;;;;;;12613961;28;20420;-34
2024/04/07 05:25:32;;;;;;;5.10;1.67;;;17.00;99.90;;;;;;12608180;28;20059;-34
2024/04/07 05:31:33;;;;;;;10.88;2.25;;;17.00;99.90;;;;;;12606017;28;20051;-34
2024/04/07 05:37:34;;;;;;;3.35;1.30;;;17.00;99.90;;;;;;12606073;28;20092;-34
2024/04/07 05:43:35;;;;;;;6.65;1.30;;;16.90;99.90;;;;;;12623248;28;20127;-34
2024/04/07 05:49:38;;;;;;;2.83;0.80;;;16.80;99.90;;;;;;12617493;28;20064;-34
2024/04/07 05:55:38;;;;;;;1.95;1.00;;;16.70;99.90;;;;;;12594466;28;20501;-34
2024/04/07 06:01:39;;;;;;;4.28;1.02;;;16.80;99.90;;;;;;12613082;28;20048;-34
2024/04/07 06:07:40;;;;;;;4.97;1.20;;;16.80;99.90;;;;;;12589922;28;20063;-34
2024/04/07 06:13:42;;;;;;;4.13;1.20;;;17.00;99.90;;;;;;12610617;28;20055;-34
2024/04/07 06:19:43;;;;;;;5.00;1.17;;;17.00;99.90;;;;;;12620866;28;20408;-34
2024/04/07 06:25:46;;;;;;;4.38;1.70;;;16.90;99.90;;;;;;12620662;28;20427;-34
2024/04/07 06:31:47;;;;;;;5.15;1.23;;;17.00;99.90;;;;;;12585391;28;20044;-34
2024/04/07 06:37:48;;;;;;;3.72;1.10;;;17.20;99.90;;;;;;12635075;28;20048;-35
2024/04/07 06:43:49;;;;;;;1.20;0.80;;;17.00;99.90;;;;;;12613289;28;20052;-34
2024/04/07 06:49:52;;;;;;;4.55;1.10;;;16.70;99.90;;;;;;12618941;28;20055;-34
2024/04/07 06:55:53;;;;;;;3.80;1.00;;;16.60;99.90;;;;;;12593200;28;20044;-34
2024/04/07 07:01:54;;;;;;;3.70;0.80;;;16.60;99.90;;;;;;12616435;28;20416;-34
2024/04/07 07:07:55;;;;;;;3.22;0.82;;;16.70;99.90;;;;;;12618598;28;20052;-34
2024/04/07 07:13:56;;;;;;;1.27;0.77;;;16.70;99.90;;;;;;12608917;28;20044;-34
2024/04/07 07:19:57;;;;;;;3.65;0.90;;;16.80;99.90;;;;;;12618182;28;20412;-34
2024/04/07 07:25:58;;;;;;;4.55;1.10;;;17.00;99.90;;;;;;12617876;28;20060;-34
2024/04/07 07:31:59;;;;;;;3.55;0.95;;;17.10;99.90;;;;;;12592530;28;20476;-34
2024/04/07 07:38:00;;;;;;;3.85;0.90;;;17.10;99.90;;;;;;12615663;28;20060;-34
2024/04/07 07:44:01;;;;;;;3.20;1.00;;;17.00;99.90;;;;;;12618588;28;20056;-34
2024/04/07 07:50:03;;;;;;;3.38;1.10;;;17.10;99.90;;;;;;12625426;28;20048;-34
2024/04/07 07:56:05;;;;;;;6.10;1.30;;;17.10;99.90;;;;;;12602660;28;20056;-34
2024/04/07 08:02:06;;;;;;;5.78;1.40;;;17.20;99.90;;;;;;12613912;28;20044;-34
2024/04/07 08:08:07;;;;;;;5.28;1.30;;;17.20;99.90;;;;;;12620177;28;20048;-34
2024/04/07 08:14:08;;;;;;;3.10;1.02;;;17.40;99.90;;;;;;12612726;28;20041;-34
2024/04/07 08:20:09;;;;;;;5.07;1.58;;;17.70;99.90;;;;;;12618157;28;20515;-34
2024/04/07 08:26:10;;;;;;;6.22;1.88;;;17.90;99.90;;;;;;12620003;28;20149;-34
2024/04/07 08:32:10;;;;;;;2.45;1.05;;;18.00;99.90;;;;;;12598342;28;20060;-35
2024/04/07 08:38:11;;;;;;;4.88;1.40;;;18.60;99.90;;;;;;12620035;28;20405;-34
2024/04/07 08:44:18;;;;;;;3.55;1.65;;;18.40;99.90;;;;;;12608589;28;20117;-34
2024/04/07 08:50:20;;;;;;;5.82;1.58;;;18.10;99.90;;;;;;12585385;28;20064;-34
2024/04/07 08:56:21;;;;;;;6.38;1.60;;;17.90;99.90;;;;;;12625677;28;20052;-34
2024/04/07 09:02:22;;;;;;;6.43;1.50;;;17.80;99.90;;;;;;12614750;28;20048;-34
2024/04/07 09:08:23;;;;;;;8.40;1.25;;;17.70;99.90;;;;;;12585034;28;20056;-34
2024/04/07 09:14:26;;;;;;;3.28;1.00;;;17.70;99.90;;;;;;12620566;28;20535;-34
2024/04/07 09:20:26;;;;;;;5.90;1.15;;;17.80;99.90;;;;;;12608385;28;20056;-34
2024/04/07 09:26:27;;;;;;;7.20;1.30;;;17.90;99.90;;;;;;12608760;28;20083;-34
2024/04/07 09:32:28;;;;;;;5.13;1.08;;;18.20;99.90;;;;;;12595632;28;20057;-34
2024/04/07 09:38:30;;;;;;;2.40;0.85;;;18.50;99.90;;;;;;12615292;28;20051;-35
2024/04/07 09:44:35;;;;;;;3.67;0.85;;;19.00;99.90;;;;;;12606138;28;20048;-34
2024/04/07 09:50:44;;;;;;;2.38;0.75;;;19.40;99.90;;;;;;12611207;28;20083;-35
2024/04/07 09:56:46;;;;;;;2.80;0.70;;;19.70;99.90;;;;;;12627507;28;20260;-34
2024/04/07 10:02:47;;;;;;;2.30;0.70;;;19.80;99.90;;;;;;12629429;28;20040;-35
2024/04/07 10:08:49;;;;;;;3.15;0.90;;;20.10;99.90;;;;;;12627666;28;20912;-34
2024/04/07 10:14:50;;;;;;;3.80;1.00;;;20.20;99.90;;;;;;12633165;28;20048;-34
2024/04/07 10:20:53;;;;;;;4.75;1.00;;;20.40;99.90;;;;;;12625647;28;20056;-34
2024/04/07 10:26:54;;;;;;;3.97;1.00;;;20.90;99.90;;;;;;12633437;28;20059;-35
2024/04/07 10:33:01;;;;;;;1.90;0.65;;;20.80;99.90;;;;;;12605475;28;20047;-36
2024/04/07 10:39:03;;;;;;;2.53;0.60;;;20.50;99.90;;;;;;12627552;28;20037;-34
2024/04/07 10:45:05;;;;;;;4.07;1.10;;;20.70;99.90;;;;;;12615481;28;20052;-35
2024/04/07 10:51:09;;;;;;;2.38;0.70;;;20.60;99.90;;;;;;12645464;27;20052;-34
2024/04/07 10:57:14;;;;;;;3.05;0.85;;;20.70;99.90;;;;;;12613579;28;20048;-34
2024/04/07 11:03:15;;;;;;;3.50;0.80;;;20.60;99.90;;;;;;12629043;28;20047;-34
2024/04/07 11:09:16;;;;;;;2.85;0.70;;;21.10;99.90;;;;;;12613997;28;20049;-35
2024/04/07 11:15:17;;;;;;;3.28;0.77;;;21.10;99.90;;;;;;12621820;28;20491;-35
2024/04/07 11:21:18;;;;;;;3.60;0.68;;;20.60;99.90;;;;;;12621225;28;20059;-35
2024/04/07 11:27:19;;;;;;;2.33;0.60;;;21.20;99.90;;;;;;12621722;28;20560;-34
2024/04/07 11:33:20;;;;;;;4.30;1.10;;;21.60;99.90;;;;;;12615911;28;20063;-34
2024/04/07 11:39:24;;;;;;;3.60;0.93;;;21.70;99.90;;;;;;12612423;28;20049;-35
2024/04/07 11:45:25;;;;;;;4.82;0.68;;;21.50;99.90;;;;;;12618954;28;20056;-35
2024/04/07 11:51:26;;;;;;;1.77;0.60;;;20.90;99.90;;;;;;12613786;28;20044;-35
2024/04/07 11:57:27;;;;;;;3.15;0.75;;;20.60;99.90;;;;;;12621005;28;20052;-35
2024/04/07 12:03:28;;;;;;;2.25;0.70;;;20.80;99.90;;;;;;12595991;28;20044;-34
2024/04/07 12:09:30;;;;;;;2.50;1.15;;;20.70;99.90;;;;;;12619376;28;20374;-35
2024/04/07 12:15:31;;;;;;;3.25;0.88;;;20.80;99.90;;;;;;12608249;28;20059;-35
2024/04/07 12:21:32;;;;;;;2.72;0.52;;;21.00;99.90;;;;;;12596228;28;20111;-36
2024/04/07 12:27:33;;;;;;;4.15;0.52;;;21.50;99.90;;;;;;12597449;28;20143;-34
2024/04/07 12:33:34;;;;;;;1.38;0.55;;;21.70;99.90;;;;;;12603316;28;20497;-35
2024/04/07 12:39:35;;;;;;;2.05;0.50;;;21.80;99.90;;;;;;12599229;28;20048;-35
2024/04/07 12:45:37;;;;;;;1.15;0.45;;;21.50;99.90;;;;;;12616951;28;20138;-35
2024/04/07 12:51:39;;;;;;;1.58;0.50;;;21.30;99.90;;;;;;12619009;28;20061;-35
2024/04/07 12:57:41;;;;;;;2.80;0.63;;;21.00;99.90;;;;;;12615031;28;20444;-34
2024/04/07 13:03:42;;;;;;;1.38;0.45;;;20.80;99.90;;;;;;12607382;28;20193;-35
2024/04/07 13:09:43;;;;;;;5.53;0.80;;;20.80;99.90;;;;;;12609435;28;20171;-35
2024/04/07 13:15:46;;;;;;;2.40;0.60;;;21.00;99.90;;;;;;12599386;28;20062;-35
2024/04/07 13:21:46;;;;;;;3.07;0.83;;;21.90;99.90;;;;;;12607838;28;20059;-35
2024/04/07 13:27:47;;;;;;;3.90;0.90;;;22.30;99.90;;;;;;12582010;28;20055;-35
2024/04/07 13:33:48;;;;;;;3.08;0.60;;;22.30;99.90;;;;;;12611116;28;20138;-34
2024/04/07 13:39:50;;;;;;;2.20;0.88;;;21.90;99.90;;;;;;12613342;28;20037;-35
2024/04/07 13:45:50;;;;;;;2.53;0.70;;;21.70;99.90;;;;;;12624191;28;20416;-35
2024/04/07 13:51:51;;;;;;;3.88;0.80;;;21.90;99.90;;;;;;12604375;28;20055;-35
2024/04/07 13:57:52;;;;;;;2.60;0.77;;;21.50;99.90;;;;;;12617619;28;20055;-35
2024/04/07 14:03:53;;;;;;;1.35;0.73;;;21.30;99.90;;;;;;12602296;28;20076;-35
2024/04/07 14:09:54;;;;;;;4.97;0.70;;;21.10;99.90;;;;;;12612482;28;20165;-34
2024/04/07 14:15:55;;;;;;;2.88;0.70;;;21.40;99.90;;;;;;12605729;28;20052;-35
2024/04/07 14:21:56;;;;;;;2.05;0.40;;;21.70;99.90;;;;;;12606001;28;20063;-35
2024/04/07 14:27:56;;;;;;;1.50;0.45;;;21.80;99.90;;;;;;12581512;28;20512;-35
2024/04/07 14:33:57;;;;;;;4.65;0.65;;;21.60;99.90;;;;;;12600649;28;20055;-35
2024/04/07 14:39:58;;;;;;;3.58;0.60;;;21.60;99.90;;;;;;12613256;28;20126;-35
2024/04/07 14:45:59;;;;;;;1.83;0.40;;;21.30;99.90;;;;;;12620176;28;20067;-35
2024/04/07 14:52:00;;;;;;;2.05;0.50;;;20.90;99.90;;;;;;12632436;28;20056;-35
2024/04/07 14:58:01;;;;;;;2.15;0.60;;;20.80;99.90;;;;;;12633176;28;20044;-34
2024/04/07 15:04:02;;;;;;;2.38;0.70;;;20.60;99.90;;;;;;12604720;28;20115;-34
2024/04/07 15:10:03;;;;;;;3.53;0.80;;;20.70;99.90;;;;;;12609369;28;20071;-34
2024/04/07 15:16:05;;;;;;;2.20;0.63;;;20.60;99.90;;;;;;12633539;28;20483;-35
2024/04/07 15:22:06;;;;;;;3.75;0.60;;;20.80;99.90;;;;;;12621443;28;20067;-34
2024/04/07 15:28:07;;;;;;;5.30;0.70;;;20.80;99.90;;;;;;12592247;28;20062;-35
2024/04/07 15:34:07;;;;;;;2.90;0.70;;;20.90;99.90;;;;;;12631842;28;20189;-34
2024/04/07 15:40:09;;;;;;;2.38;0.60;;;20.80;99.90;;;;;;12602397;28;20040;-34
2024/04/07 15:46:11;;;;;;;3.40;0.82;;;20.70;99.90;;;;;;12621288;28;20491;-35
2024/04/07 15:52:11;;;;;;;1.63;0.98;;;20.60;99.90;;;;;;12621864;28;20055;-34
2024/04/07 15:58:13;;;;;;;2.47;0.70;;;20.40;99.90;;;;;;12620086;28;20105;-35
2024/04/07 16:04:14;;;;;;;2.33;0.70;;;20.30;99.90;;;;;;12620083;28;20048;-35
2024/04/07 16:10:15;;;;;;;2.45;0.60;;;20.10;99.90;;;;;;12620134;28;20056;-35
2024/04/07 16:16:17;;;;;;;2.33;0.60;;;19.80;99.90;;;;;;12616409;28;20047;-35
2024/04/07 16:22:19;;;;;;;3.72;0.80;;;19.70;99.90;;;;;;12615561;28;20060;-35
2024/04/07 16:28:20;;;;;;;2.60;0.93;;;19.60;99.90;;;;;;12575829;28;20130;-35
2024/04/07 16:35:55;;;;;;;4.75;1.20;;;19.60;99.90;;;;;;13703598;25;20088;-37
2024/04/07 16:41:57;;;;;;;1.60;0.60;;;19.60;99.90;;;;;;13641683;25;20032;-36
2024/04/07 16:47:59;;;;;;;2.47;0.70;;;19.50;99.90;;;;;;13632419;25;19997;-36
2024/04/07 16:54:02;;;;;;;4.55;1.33;;;19.40;99.90;;;;;;13566242;26;20612;-36
2024/04/07 17:00:05;;;;;;;2.75;0.57;;;19.50;99.90;;;;;;13533997;26;20002;-36
2024/04/07 17:06:08;;;;;;;3.03;0.60;;;19.40;99.90;;;;;;13560909;26;20475;-36
2024/04/07 17:12:10;;;;;;;4.05;1.02;;;19.30;99.90;;;;;;13569475;25;20006;-36
2024/04/07 17:18:12;;;;;;;3.08;1.00;;;19.30;99.90;;;;;;13557021;26;20018;-36
2024/04/07 17:24:14;;;;;;;1.90;0.80;;;19.20;99.90;;;;;;13566962;26;20005;-36
2024/04/07 17:30:16;;;;;;;3.38;1.13;;;19.20;99.90;;;;;;13506969;26;20482;-36
2024/04/07 17:36:18;;;;;;;4.78;1.42;;;19.20;99.90;;;;;;13537264;26;20003;-36
2024/04/07 17:42:20;;;;;;;6.68;1.20;;;19.00;99.90;;;;;;13597068;26;19999;-37
2024/04/07 17:48:22;;;;;;;6.85;0.98;;;18.80;99.90;;;;;;13558812;26;20048;-36
2024/04/07 17:54:24;;;;;;;3.92;0.90;;;18.80;99.90;;;;;;13486245;26;19998;-36
2024/04/07 18:00:27;;;;;;;2.35;0.80;;;18.70;99.90;;;;;;13557442;26;20015;-37
2024/04/07 18:06:29;;;;;;;2.17;0.85;;;18.70;99.90;;;;;;13527083;26;19999;-36
2024/04/07 18:12:31;;;;;;;2.05;0.90;;;18.60;99.90;;;;;;13524148;26;20463;-36
2024/04/07 18:18:33;;;;;;;7.35;1.23;;;18.50;99.90;;;;;;13494211;26;19999;-36
2024/04/07 18:24:35;;;;;;;2.40;0.82;;;18.20;99.90;;;;;;13514663;26;20014;-37
2024/04/07 18:30:37;;;;;;;2.20;0.82;;;18.00;99.90;;;;;;13450509;26;20006;-36
2024/04/07 18:36:41;;;;;;;6.15;1.15;;;17.80;99.90;;;;;;13546240;26;20046;-36
2024/04/07 18:42:45;;;;;;;2.78;1.10;;;17.70;99.90;;;;;;13526596;26;20018;-36
2024/04/07 18:48:47;;;;;;;3.58;1.20;;;17.50;99.90;;;;;;13501182;26;21922;-36
2024/04/07 18:54:49;;;;;;;4.15;1.02;;;17.40;99.90;;;;;;13567228;26;20010;-36
2024/04/07 19:00:52;;;;;;;4.55;1.30;;;17.40;99.90;;;;;;13546445;26;20037;-36
2024/04/07 19:06:58;;;;;;;3.50;1.17;;;17.40;99.90;;;;;;13545183;26;20007;-36
2024/04/07 19:13:00;;;;;;;3.05;1.23;;;17.40;99.90;;;;;;13519488;26;20014;-36
2024/04/07 19:19:03;;;;;;;2.90;1.13;;;17.30;99.90;;;;;;13491042;26;20007;-36
2024/04/07 19:25:06;;;;;;;2.67;1.13;;;17.30;99.90;;;;;;13534064;26;20012;-36
2024/04/07 19:31:12;;;;;;;3.07;0.97;;;17.10;99.90;;;;;;13438586;26;20013;-36
2024/04/07 19:37:14;;;;;;;3.60;1.48;;;17.00;99.90;;;;;;13514743;26;20240;-36
2024/04/07 19:43:16;;;;;;;4.72;1.10;;;16.90;99.90;;;;;;13516868;26;20006;-36
2024/04/07 19:49:18;;;;;;;5.65;1.10;;;16.70;99.90;;;;;;13484835;26;20551;-36
2024/04/07 19:55:20;;;;;;;6.40;1.45;;;16.80;99.90;;;;;;13518031;26;20022;-36
2024/04/07 20:01:22;;;;;;;1.95;1.10;;;16.90;99.90;;;;;;13514217;26;20003;-36
2024/04/07 20:07:24;;;;;;;2.80;1.10;;;16.90;99.90;;;;;;13510258;26;20014;-36
2024/04/07 20:13:27;;;;;;;3.78;1.30;;;17.00;99.90;;;;;;13529794;26;20002;-36
2024/04/07 20:19:29;;;;;;;6.70;2.53;;;16.90;99.90;;;;;;13497638;26;20042;-36
2024/04/07 20:25:31;;;;;;;4.78;2.00;;;16.80;99.90;;;;;;13532562;26;20018;-36
2024/04/07 20:31:33;;;;;;;4.40;1.23;;;16.80;99.90;;;;;;13458198;26;20007;-36
2024/04/07 20:37:35;;;;;;;2.85;1.00;;;16.70;99.90;;;;;;13546674;26;19998;-36
2024/04/07 20:43:36;;;;;;;2.88;0.98;;;16.80;99.90;;;;;;13527214;26;20007;-36
2024/04/07 20:49:38;;;;;;;4.88;0.90;;;17.00;99.90;;;;;;13536867;26;20018;-36
2024/04/07 20:55:40;;;;;;;5.80;0.90;;;17.30;99.90;;;;;;13516533;26;20024;-36
2024/04/07 21:01:43;;;;;;;3.13;1.30;;;17.40;99.90;;;;;;13522613;26;20477;-36
2024/04/07 21:07:54;;;;;;;4.50;2.05;;;17.20;99.90;;;;;;13529592;26;20101;-36
2024/04/07 21:13:56;;;;;;;7.20;2.33;;;16.80;99.90;;;;;;13512172;26;20003;-36
2024/04/07 21:19:58;;;;;;;6.65;2.08;;;16.40;99.90;;;;;;13537581;26;20049;-36
2024/04/07 21:26:00;;;;;;;3.90;1.90;;;16.20;99.90;;;;;;13531534;26;20324;-35
2024/04/07 21:32:02;;;;;;;3.55;1.80;;;16.00;99.90;;;;;;13481106;26;20283;-36
2024/04/07 21:38:05;;;;;;;5.03;2.65;;;16.10;99.90;;;;;;13521783;26;19999;-36
2024/04/07 21:44:08;;;;;;;5.13;1.70;;;16.10;99.90;;;;;;13537098;26;20043;-36
2024/04/07 21:50:10;;;;;;;8.63;2.05;;;15.90;99.90;;;;;;13536071;26;19995;-45
2024/04/07 21:56:12;;;;;;;6.88;1.75;;;15.70;99.90;;;;;;13519235;26;20038;-36
2024/04/07 22:02:15;;;;;;;4.18;1.50;;;15.40;99.90;;;;;;13520963;26;20347;-36
2024/04/07 22:08:17;;;;;;;5.00;2.03;;;15.50;99.90;;;;;;13516432;26;20038;-36
2024/04/07 22:14:19;;;;;;;5.45;1.63;;;15.40;99.90;;;;;;13493760;26;20004;-36
2024/04/07 22:20:21;;;;;;;7.35;1.70;;;15.50;99.90;;;;;;13545030;26;20063;-36
2024/04/07 22:26:23;;;;;;;4.50;1.70;;;15.50;99.90;;;;;;13560875;26;20017;-36
2024/04/07 22:32:25;;;;;;;5.05;2.05;;;15.40;99.90;;;;;;13489932;26;20010;-36
2024/04/07 22:38:28;;;;;;;6.50;1.88;;;15.30;99.90;;;;;;13556022;26;20025;-36
2024/04/07 22:44:30;;;;;;;4.38;1.60;;;15.20;99.90;;;;;;13532741;26;20327;-36
2024/04/07 22:50:32;;;;;;;4.82;1.75;;;15.20;99.90;;;;;;13532292;26;20577;-36
2024/04/07 22:56:34;;;;;;;5.75;1.80;;;15.20;99.90;;;;;;13524528;26;19999;-36
2024/04/07 23:02:36;;;;;;;4.40;1.77;;;15.20;99.90;;;;;;13539467;26;20462;-36
2024/04/07 23:08:39;;;;;;;3.88;1.63;;;15.20;99.90;;;;;;13518362;26;20023;-36
2024/04/07 23:14:41;;;;;;;6.82;1.90;;;15.10;99.90;;;;;;13523990;26;20347;-36
2024/04/07 23:20:43;;;;;;;5.88;2.08;;;15.00;99.90;;;;;;13511316;26;20865;-36
2024/04/07 23:26:45;;;;;;;9.02;1.92;;;14.90;99.90;;;;;;13523896;26;19998;-36
2024/04/07 23:32:47;;;;;;;5.93;2.20;;;14.90;99.90;;;;;;13456233;26;20011;-36
2024/04/07 23:38:49;;;;;;;5.25;1.90;;;14.70;99.90;;;;;;13484737;26;19995;-36
2024/04/07 23:44:51;;;;;;;4.57;1.80;;;14.60;99.90;;;;;;13554627;26;20017;-36
2024/04/07 23:50:54;;;;;;;5.05;2.15;;;14.60;99.90;;;;;;13544488;26;19998;-36
2024/04/07 23:56:56;;;;;;;4.10;2.00;;;14.60;99.90;;;;;;13528635;26;20039;-36
